sensor_id;sensor_type;location;lat;lon;timestamp;P1;durP1;ratioP1;P2;durP2;ratioP2
27728;SDS011;15126;42.186;24.340;2023-04-06T00:00:10;12.13;;;11.03;;
27728;SDS011;15126;42.186;24.340;2023-04-06T00:02:38;12.20;;;10.20;;
27728;SDS011;15126;42.186;24.340;2023-04-06T00:05:05;12.00;;;10.90;;
27728;SDS011;15126;42.186;24.340;2023-04-06T00:07:33;12.17;;;10.90;;
27728;SDS011;15126;42.186;24.340;2023-04-06T00:10:00;11.87;;;10.77;;
27728;SDS011;15126;42.186;24.340;2023-04-06T00:12:30;11.13;;;10.17;;
27728;SDS011;15126;42.186;24.340;2023-04-06T00:14:59;12.83;;;11.63;;
27728;SDS011;15126;42.186;24.340;2023-04-06T00:17:26;10.80;;;9.70;;
27728;SDS011;15126;42.186;24.340;2023-04-06T00:19:53;12.57;;;11.07;;
27728;SDS011;15126;42.186;24.340;2023-04-06T00:22:20;11.70;;;10.50;;
27728;SDS011;15126;42.186;24.340;2023-04-06T00:24:47;13.43;;;12.13;;
27728;SDS011;15126;42.186;24.340;2023-04-06T00:27:14;11.97;;;10.90;;
27728;SDS011;15126;42.186;24.340;2023-04-06T00:29:41;13.13;;;11.90;;
27728;SDS011;15126;42.186;24.340;2023-04-06T00:32:09;12.90;;;11.63;;
27728;SDS011;15126;42.186;24.340;2023-04-06T00:34:36;12.90;;;11.70;;
27728;SDS011;15126;42.186;24.340;2023-04-06T00:37:03;13.73;;;12.47;;
27728;SDS011;15126;42.186;24.340;2023-04-06T00:39:30;12.10;;;11.03;;
27728;SDS011;15126;42.186;24.340;2023-04-06T00:41:57;11.87;;;10.77;;
27728;SDS011;15126;42.186;24.340;2023-04-06T00:44:25;11.77;;;10.57;;
27728;SDS011;15126;42.186;24.340;2023-04-06T00:46:53;12.47;;;11.33;;
27728;SDS011;15126;42.186;24.340;2023-04-06T00:49:21;13.57;;;11.60;;
27728;SDS011;15126;42.186;24.340;2023-04-06T00:51:48;12.90;;;11.60;;
27728;SDS011;15126;42.186;24.340;2023-04-06T00:54:15;13.03;;;11.83;;
27728;SDS011;15126;42.186;24.340;2023-04-06T00:56:42;14.67;;;13.20;;
27728;SDS011;15126;42.186;24.340;2023-04-06T00:59:10;13.80;;;12.53;;
27728;SDS011;15126;42.186;24.340;2023-04-06T01:01:37;12.93;;;11.83;;
27728;SDS011;15126;42.186;24.340;2023-04-06T01:04:04;14.07;;;12.77;;
27728;SDS011;15126;42.186;24.340;2023-04-06T01:06:32;12.80;;;11.53;;
27728;SDS011;15126;42.186;24.340;2023-04-06T01:08:59;13.23;;;12.03;;
27728;SDS011;15126;42.186;24.340;2023-04-06T01:11:26;14.37;;;13.07;;
27728;SDS011;15126;42.186;24.340;2023-04-06T01:13:53;14.13;;;12.80;;
27728;SDS011;15126;42.186;24.340;2023-04-06T01:16:20;12.90;;;11.70;;
27728;SDS011;15126;42.186;24.340;2023-04-06T01:18:47;14.13;;;12.37;;
27728;SDS011;15126;42.186;24.340;2023-04-06T01:21:15;13.33;;;12.03;;
27728;SDS011;15126;42.186;24.340;2023-04-06T01:23:44;13.83;;;12.47;;
27728;SDS011;15126;42.186;24.340;2023-04-06T01:26:11;14.70;;;12.17;;
27728;SDS011;15126;42.186;24.340;2023-04-06T01:28:38;14.67;;;13.03;;
27728;SDS011;15126;42.186;24.340;2023-04-06T01:31:06;14.43;;;12.90;;
27728;SDS011;15126;42.186;24.340;2023-04-06T01:33:34;13.93;;;12.57;;
27728;SDS011;15126;42.186;24.340;2023-04-06T01:36:03;14.97;;;13.57;;
27728;SDS011;15126;42.186;24.340;2023-04-06T01:38:31;14.03;;;12.67;;
27728;SDS011;15126;42.186;24.340;2023-04-06T01:40:59;15.73;;;14.23;;
27728;SDS011;15126;42.186;24.340;2023-04-06T01:43:26;15.07;;;13.53;;
27728;SDS011;15126;42.186;24.340;2023-04-06T01:45:53;14.13;;;12.53;;
27728;SDS011;15126;42.186;24.340;2023-04-06T01:48:20;14.10;;;12.30;;
27728;SDS011;15126;42.186;24.340;2023-04-06T01:50:47;15.37;;;13.53;;
27728;SDS011;15126;42.186;24.340;2023-04-06T01:53:14;16.10;;;14.50;;
27728;SDS011;15126;42.186;24.340;2023-04-06T01:55:41;14.63;;;13.13;;
27728;SDS011;15126;42.186;24.340;2023-04-06T01:58:10;14.50;;;12.20;;
27728;SDS011;15126;42.186;24.340;2023-04-06T02:00:36;14.37;;;12.97;;
27728;SDS011;15126;42.186;24.340;2023-04-06T02:03:03;15.17;;;13.57;;
27728;SDS011;15126;42.186;24.340;2023-04-06T02:05:31;15.47;;;14.03;;
27728;SDS011;15126;42.186;24.340;2023-04-06T02:08:03;16.67;;;15.03;;
27728;SDS011;15126;42.186;24.340;2023-04-06T02:10:30;14.93;;;13.53;;
27728;SDS011;15126;42.186;24.340;2023-04-06T02:12:57;17.67;;;15.17;;
27728;SDS011;15126;42.186;24.340;2023-04-06T02:15:25;15.80;;;14.30;;
27728;SDS011;15126;42.186;24.340;2023-04-06T02:17:52;15.43;;;13.93;;
27728;SDS011;15126;42.186;24.340;2023-04-06T02:20:19;15.00;;;13.50;;
27728;SDS011;15126;42.186;24.340;2023-04-06T02:22:46;12.47;;;11.37;;
27728;SDS011;15126;42.186;24.340;2023-04-06T02:25:13;15.30;;;13.80;;
27728;SDS011;15126;42.186;24.340;2023-04-06T02:27:40;15.03;;;13.63;;
27728;SDS011;15126;42.186;24.340;2023-04-06T02:30:07;16.43;;;14.83;;
27728;SDS011;15126;42.186;24.340;2023-04-06T02:32:36;16.07;;;14.40;;
27728;SDS011;15126;42.186;24.340;2023-04-06T02:35:04;17.40;;;14.40;;
27728;SDS011;15126;42.186;24.340;2023-04-06T02:37:31;16.57;;;14.70;;
27728;SDS011;15126;42.186;24.340;2023-04-06T02:39:58;16.10;;;14.50;;
27728;SDS011;15126;42.186;24.340;2023-04-06T02:42:25;19.33;;;17.30;;
27728;SDS011;15126;42.186;24.340;2023-04-06T02:44:51;15.53;;;13.93;;
27728;SDS011;15126;42.186;24.340;2023-04-06T02:47:18;15.67;;;14.00;;
27728;SDS011;15126;42.186;24.340;2023-04-06T02:49:47;16.70;;;14.50;;
27728;SDS011;15126;42.186;24.340;2023-04-06T02:52:13;16.90;;;15.20;;
27728;SDS011;15126;42.186;24.340;2023-04-06T02:54:43;17.20;;;14.03;;
27728;SDS011;15126;42.186;24.340;2023-04-06T02:57:10;18.63;;;15.30;;
27728;SDS011;15126;42.186;24.340;2023-04-06T02:59:36;18.23;;;16.30;;
27728;SDS011;15126;42.186;24.340;2023-04-06T03:02:03;15.33;;;13.83;;
27728;SDS011;15126;42.186;24.340;2023-04-06T03:04:30;16.53;;;14.93;;
27728;SDS011;15126;42.186;24.340;2023-04-06T03:06:59;16.20;;;14.50;;
27728;SDS011;15126;42.186;24.340;2023-04-06T03:09:26;16.10;;;14.63;;
27728;SDS011;15126;42.186;24.340;2023-04-06T03:11:53;16.27;;;14.67;;
27728;SDS011;15126;42.186;24.340;2023-04-06T03:14:20;18.93;;;16.53;;
27728;SDS011;15126;42.186;24.340;2023-04-06T03:16:47;22.23;;;16.73;;
27728;SDS011;15126;42.186;24.340;2023-04-06T03:19:14;19.00;;;16.97;;
27728;SDS011;15126;42.186;24.340;2023-04-06T03:21:41;21.97;;;19.67;;
27728;SDS011;15126;42.186;24.340;2023-04-06T03:24:10;22.63;;;17.83;;
27728;SDS011;15126;42.186;24.340;2023-04-06T03:26:38;21.43;;;17.07;;
27728;SDS011;15126;42.186;24.340;2023-04-06T03:29:04;18.43;;;16.30;;
27728;SDS011;15126;42.186;24.340;2023-04-06T03:31:31;19.13;;;16.17;;
27728;SDS011;15126;42.186;24.340;2023-04-06T03:33:58;17.43;;;15.80;;
27728;SDS011;15126;42.186;24.340;2023-04-06T03:36:25;24.47;;;17.37;;
27728;SDS011;15126;42.186;24.340;2023-04-06T03:38:52;18.77;;;16.83;;
27728;SDS011;15126;42.186;24.340;2023-04-06T03:41:21;18.37;;;16.47;;
27728;SDS011;15126;42.186;24.340;2023-04-06T03:43:48;18.37;;;15.47;;
27728;SDS011;15126;42.186;24.340;2023-04-06T03:46:15;21.50;;;14.90;;
27728;SDS011;15126;42.186;24.340;2023-04-06T03:48:42;18.63;;;14.50;;
27728;SDS011;15126;42.186;24.340;2023-04-06T03:51:09;16.57;;;14.87;;
27728;SDS011;15126;42.186;24.340;2023-04-06T03:53:35;17.83;;;15.97;;
27728;SDS011;15126;42.186;24.340;2023-04-06T03:56:03;16.30;;;14.60;;
27728;SDS011;15126;42.186;24.340;2023-04-06T03:58:32;17.87;;;16.00;;
27728;SDS011;15126;42.186;24.340;2023-04-06T04:00:59;18.70;;;16.57;;
27728;SDS011;15126;42.186;24.340;2023-04-06T04:03:26;18.00;;;16.20;;
27728;SDS011;15126;42.186;24.340;2023-04-06T04:05:53;18.83;;;17.03;;
27728;SDS011;15126;42.186;24.340;2023-04-06T04:08:21;16.60;;;15.00;;
27728;SDS011;15126;42.186;24.340;2023-04-06T04:10:48;18.50;;;16.67;;
27728;SDS011;15126;42.186;24.340;2023-04-06T04:13:15;18.93;;;16.63;;
27728;SDS011;15126;42.186;24.340;2023-04-06T04:15:43;19.27;;;17.07;;
27728;SDS011;15126;42.186;24.340;2023-04-06T04:18:12;20.40;;;15.43;;
27728;SDS011;15126;42.186;24.340;2023-04-06T04:20:39;20.17;;;16.13;;
27728;SDS011;15126;42.186;24.340;2023-04-06T04:23:06;24.33;;;18.27;;
27728;SDS011;15126;42.186;24.340;2023-04-06T04:25:33;18.07;;;16.17;;
27728;SDS011;15126;42.186;24.340;2023-04-06T04:28:00;18.80;;;16.87;;
27728;SDS011;15126;42.186;24.340;2023-04-06T04:30:27;19.30;;;17.20;;
27728;SDS011;15126;42.186;24.340;2023-04-06T04:32:55;19.87;;;17.40;;
27728;SDS011;15126;42.186;24.340;2023-04-06T04:35:22;20.20;;;18.00;;
27728;SDS011;15126;42.186;24.340;2023-04-06T04:37:49;22.23;;;18.77;;
27728;SDS011;15126;42.186;24.340;2023-04-06T04:40:16;23.97;;;18.87;;
27728;SDS011;15126;42.186;24.340;2023-04-06T04:42:43;24.77;;;18.23;;
27728;SDS011;15126;42.186;24.340;2023-04-06T04:45:10;20.60;;;18.43;;
27728;SDS011;15126;42.186;24.340;2023-04-06T04:47:37;23.37;;;18.20;;
27728;SDS011;15126;42.186;24.340;2023-04-06T04:50:06;20.47;;;17.27;;
27728;SDS011;15126;42.186;24.340;2023-04-06T04:52:33;19.00;;;16.13;;
27728;SDS011;15126;42.186;24.340;2023-04-06T04:55:00;18.27;;;15.10;;
27728;SDS011;15126;42.186;24.340;2023-04-06T04:57:28;17.73;;;15.90;;
27728;SDS011;15126;42.186;24.340;2023-04-06T04:59:55;19.97;;;16.67;;
27728;SDS011;15126;42.186;24.340;2023-04-06T05:02:23;20.93;;;15.70;;
27728;SDS011;15126;42.186;24.340;2023-04-06T05:04:50;16.83;;;15.03;;
27728;SDS011;15126;42.186;24.340;2023-04-06T05:07:18;16.33;;;14.73;;
27728;SDS011;15126;42.186;24.340;2023-04-06T05:09:46;17.30;;;13.87;;
27728;SDS011;15126;42.186;24.340;2023-04-06T05:12:13;17.67;;;14.87;;
27728;SDS011;15126;42.186;24.340;2023-04-06T05:14:40;16.80;;;14.37;;
27728;SDS011;15126;42.186;24.340;2023-04-06T05:17:06;15.30;;;13.73;;
27728;SDS011;15126;42.186;24.340;2023-04-06T05:19:33;16.20;;;14.50;;
27728;SDS011;15126;42.186;24.340;2023-04-06T05:22:00;14.47;;;13.07;;
27728;SDS011;15126;42.186;24.340;2023-04-06T05:24:29;21.30;;;12.97;;
27728;SDS011;15126;42.186;24.340;2023-04-06T05:26:56;15.23;;;13.70;;
27728;SDS011;15126;42.186;24.340;2023-04-06T05:29:23;15.70;;;12.17;;
27728;SDS011;15126;42.186;24.340;2023-04-06T05:31:50;13.80;;;12.33;;
27728;SDS011;15126;42.186;24.340;2023-04-06T05:34:17;14.73;;;13.23;;
27728;SDS011;15126;42.186;24.340;2023-04-06T05:36:44;14.53;;;13.10;;
27728;SDS011;15126;42.186;24.340;2023-04-06T05:39:11;13.33;;;11.83;;
27728;SDS011;15126;42.186;24.340;2023-04-06T05:41:40;12.90;;;11.60;;
27728;SDS011;15126;42.186;24.340;2023-04-06T05:44:07;12.73;;;10.63;;
27728;SDS011;15126;42.186;24.340;2023-04-06T05:46:34;13.97;;;12.57;;
27728;SDS011;15126;42.186;24.340;2023-04-06T05:49:01;12.77;;;11.40;;
27728;SDS011;15126;42.186;24.340;2023-04-06T05:51:28;12.17;;;10.77;;
27728;SDS011;15126;42.186;24.340;2023-04-06T05:53:54;14.03;;;10.83;;
27728;SDS011;15126;42.186;24.340;2023-04-06T05:56:23;10.37;;;9.33;;
27728;SDS011;15126;42.186;24.340;2023-04-06T05:58:52;12.80;;;11.40;;
27728;SDS011;15126;42.186;24.340;2023-04-06T06:01:18;11.47;;;10.43;;
27728;SDS011;15126;42.186;24.340;2023-04-06T06:03:46;11.87;;;10.77;;
27728;SDS011;15126;42.186;24.340;2023-04-06T06:06:13;12.00;;;10.90;;
27728;SDS011;15126;42.186;24.340;2023-04-06T06:08:40;11.70;;;10.60;;
27728;SDS011;15126;42.186;24.340;2023-04-06T06:11:06;10.23;;;9.13;;
27728;SDS011;15126;42.186;24.340;2023-04-06T06:13:33;13.07;;;11.83;;
27728;SDS011;15126;42.186;24.340;2023-04-06T06:16:02;13.10;;;11.50;;
27728;SDS011;15126;42.186;24.340;2023-04-06T06:18:30;12.50;;;11.30;;
27728;SDS011;15126;42.186;24.340;2023-04-06T06:20:57;13.90;;;11.30;;
27728;SDS011;15126;42.186;24.340;2023-04-06T06:23:24;14.13;;;12.70;;
27728;SDS011;15126;42.186;24.340;2023-04-06T06:25:51;11.90;;;10.70;;
27728;SDS011;15126;42.186;24.340;2023-04-06T06:28:18;16.27;;;11.60;;
27728;SDS011;15126;42.186;24.340;2023-04-06T06:30:45;10.93;;;9.83;;
27728;SDS011;15126;42.186;24.340;2023-04-06T06:33:14;9.93;;;8.87;;
27728;SDS011;15126;42.186;24.340;2023-04-06T06:35:41;10.83;;;9.80;;
27728;SDS011;15126;42.186;24.340;2023-04-06T06:38:08;11.20;;;10.17;;
27728;SDS011;15126;42.186;24.340;2023-04-06T06:40:35;10.53;;;8.80;;
27728;SDS011;15126;42.186;24.340;2023-04-06T06:43:02;10.27;;;8.63;;
27728;SDS011;15126;42.186;24.340;2023-04-06T06:45:29;9.47;;;8.67;;
27728;SDS011;15126;42.186;24.340;2023-04-06T06:47:56;9.37;;;8.47;;
27728;SDS011;15126;42.186;24.340;2023-04-06T06:50:24;9.60;;;8.70;;
27728;SDS011;15126;42.186;24.340;2023-04-06T06:52:51;10.47;;;9.37;;
27728;SDS011;15126;42.186;24.340;2023-04-06T06:55:18;9.73;;;8.83;;
27728;SDS011;15126;42.186;24.340;2023-04-06T06:57:45;10.10;;;9.20;;
27728;SDS011;15126;42.186;24.340;2023-04-06T07:00:13;9.13;;;8.37;;
27728;SDS011;15126;42.186;24.340;2023-04-06T07:02:40;10.90;;;9.83;;
27728;SDS011;15126;42.186;24.340;2023-04-06T07:05:07;10.90;;;9.73;;
27728;SDS011;15126;42.186;24.340;2023-04-06T07:07:36;9.27;;;8.20;;
27728;SDS011;15126;42.186;24.340;2023-04-06T07:10:03;9.03;;;8.17;;
27728;SDS011;15126;42.186;24.340;2023-04-06T07:12:30;12.53;;;9.07;;
27728;SDS011;15126;42.186;24.340;2023-04-06T07:14:57;8.53;;;7.80;;
27728;SDS011;15126;42.186;24.340;2023-04-06T07:17:24;8.13;;;7.37;;
27728;SDS011;15126;42.186;24.340;2023-04-06T07:19:51;14.93;;;9.60;;
27728;SDS011;15126;42.186;24.340;2023-04-06T07:22:18;9.50;;;8.63;;
27728;SDS011;15126;42.186;24.340;2023-04-06T07:24:46;10.37;;;9.33;;
27728;SDS011;15126;42.186;24.340;2023-04-06T07:27:13;10.03;;;9.03;;
27728;SDS011;15126;42.186;24.340;2023-04-06T07:29:41;8.53;;;7.73;;
27728;SDS011;15126;42.186;24.340;2023-04-06T07:32:08;8.90;;;8.10;;
27728;SDS011;15126;42.186;24.340;2023-04-06T07:34:35;8.60;;;7.90;;
27728;SDS011;15126;42.186;24.340;2023-04-06T07:37:02;8.17;;;7.43;;
27728;SDS011;15126;42.186;24.340;2023-04-06T07:39:29;9.53;;;8.63;;
27728;SDS011;15126;42.186;24.340;2023-04-06T07:41:57;9.47;;;8.10;;
27728;SDS011;15126;42.186;24.340;2023-04-06T07:44:26;9.00;;;8.13;;
27728;SDS011;15126;42.186;24.340;2023-04-06T07:46:53;9.10;;;8.27;;
27728;SDS011;15126;42.186;24.340;2023-04-06T07:49:20;8.03;;;7.27;;
27728;SDS011;15126;42.186;24.340;2023-04-06T07:51:48;7.97;;;7.27;;
27728;SDS011;15126;42.186;24.340;2023-04-06T07:54:15;7.80;;;6.87;;
27728;SDS011;15126;42.186;24.340;2023-04-06T07:56:42;9.47;;;8.30;;
27728;SDS011;15126;42.186;24.340;2023-04-06T07:59:10;9.90;;;8.83;;
27728;SDS011;15126;42.186;24.340;2023-04-06T08:01:38;8.57;;;7.57;;
27728;SDS011;15126;42.186;24.340;2023-04-06T08:04:05;8.43;;;7.70;;
27728;SDS011;15126;42.186;24.340;2023-04-06T08:06:32;9.03;;;8.23;;
27728;SDS011;15126;42.186;24.340;2023-04-06T08:09:01;8.17;;;7.37;;
27728;SDS011;15126;42.186;24.340;2023-04-06T08:11:28;7.57;;;6.80;;
27728;SDS011;15126;42.186;24.340;2023-04-06T08:13:56;7.60;;;6.80;;
27728;SDS011;15126;42.186;24.340;2023-04-06T08:16:24;7.47;;;6.77;;
27728;SDS011;15126;42.186;24.340;2023-04-06T08:18:51;10.13;;;8.00;;
27728;SDS011;15126;42.186;24.340;2023-04-06T08:21:18;8.80;;;7.90;;
27728;SDS011;15126;42.186;24.340;2023-04-06T08:23:45;8.73;;;7.97;;
27728;SDS011;15126;42.186;24.340;2023-04-06T08:26:12;9.20;;;7.80;;
27728;SDS011;15126;42.186;24.340;2023-04-06T08:28:39;7.30;;;6.60;;
27728;SDS011;15126;42.186;24.340;2023-04-06T08:31:06;6.37;;;5.70;;
27728;SDS011;15126;42.186;24.340;2023-04-06T08:33:34;8.27;;;7.53;;
27728;SDS011;15126;42.186;24.340;2023-04-06T08:36:08;7.67;;;7.07;;
27728;SDS011;15126;42.186;24.340;2023-04-06T08:38:36;8.23;;;7.40;;
27728;SDS011;15126;42.186;24.340;2023-04-06T08:41:06;8.20;;;7.50;;
27728;SDS011;15126;42.186;24.340;2023-04-06T08:43:40;7.37;;;6.67;;
27728;SDS011;15126;42.186;24.340;2023-04-06T08:46:10;7.13;;;6.43;;
27728;SDS011;15126;42.186;24.340;2023-04-06T08:48:39;6.47;;;5.87;;
27728;SDS011;15126;42.186;24.340;2023-04-06T08:51:07;6.60;;;6.00;;
27728;SDS011;15126;42.186;24.340;2023-04-06T08:53:35;6.90;;;6.30;;
27728;SDS011;15126;42.186;24.340;2023-04-06T08:56:02;7.20;;;6.50;;
27728;SDS011;15126;42.186;24.340;2023-04-06T08:58:32;8.97;;;7.97;;
27728;SDS011;15126;42.186;24.340;2023-04-06T09:01:00;7.93;;;7.13;;
27728;SDS011;15126;42.186;24.340;2023-04-06T09:03:32;7.67;;;6.97;;
27728;SDS011;15126;42.186;24.340;2023-04-06T09:06:04;7.77;;;6.77;;
27728;SDS011;15126;42.186;24.340;2023-04-06T09:08:32;6.90;;;6.30;;
27728;SDS011;15126;42.186;24.340;2023-04-06T09:11:00;6.40;;;5.90;;
27728;SDS011;15126;42.186;24.340;2023-04-06T09:13:29;5.87;;;5.37;;
27728;SDS011;15126;42.186;24.340;2023-04-06T09:16:00;17.80;;;6.47;;
27728;SDS011;15126;42.186;24.340;2023-04-06T09:18:28;6.83;;;6.27;;
27728;SDS011;15126;42.186;24.340;2023-04-06T09:20:56;7.43;;;6.23;;
27728;SDS011;15126;42.186;24.340;2023-04-06T09:23:26;9.10;;;6.80;;
27728;SDS011;15126;42.186;24.340;2023-04-06T09:26:03;8.03;;;7.33;;
27728;SDS011;15126;42.186;24.340;2023-04-06T09:28:40;7.30;;;6.70;;
27728;SDS011;15126;42.186;24.340;2023-04-06T09:31:11;6.60;;;6.00;;
27728;SDS011;15126;42.186;24.340;2023-04-06T09:33:40;7.70;;;7.00;;
27728;SDS011;15126;42.186;24.340;2023-04-06T09:36:08;8.60;;;7.87;;
27728;SDS011;15126;42.186;24.340;2023-04-06T09:38:51;7.30;;;6.70;;
27728;SDS011;15126;42.186;24.340;2023-04-06T09:41:23;6.77;;;6.27;;
27728;SDS011;15126;42.186;24.340;2023-04-06T09:43:51;7.43;;;6.73;;
27728;SDS011;15126;42.186;24.340;2023-04-06T09:46:20;6.73;;;6.20;;
27728;SDS011;15126;42.186;24.340;2023-04-06T09:48:48;7.30;;;6.70;;
27728;SDS011;15126;42.186;24.340;2023-04-06T09:51:16;7.87;;;7.20;;
27728;SDS011;15126;42.186;24.340;2023-04-06T09:53:47;6.27;;;5.77;;
27728;SDS011;15126;42.186;24.340;2023-04-06T09:56:20;8.33;;;7.63;;
27728;SDS011;15126;42.186;24.340;2023-04-06T09:58:52;6.83;;;6.23;;
27728;SDS011;15126;42.186;24.340;2023-04-06T10:01:23;7.60;;;6.90;;
27728;SDS011;15126;42.186;24.340;2023-04-06T10:03:59;7.90;;;7.13;;
27728;SDS011;15126;42.186;24.340;2023-04-06T10:06:37;8.00;;;6.83;;
27728;SDS011;15126;42.186;24.340;2023-04-06T10:09:07;9.33;;;8.40;;
27728;SDS011;15126;42.186;24.340;2023-04-06T10:11:34;36.27;;;29.23;;
27728;SDS011;15126;42.186;24.340;2023-04-06T10:14:03;21.43;;;19.13;;
27728;SDS011;15126;42.186;24.340;2023-04-06T10:16:30;9.07;;;8.13;;
27728;SDS011;15126;42.186;24.340;2023-04-06T10:18:59;12.30;;;11.27;;
27728;SDS011;15126;42.186;24.340;2023-04-06T10:21:33;19.40;;;16.90;;
27728;SDS011;15126;42.186;24.340;2023-04-06T10:24:02;8.73;;;8.03;;
27728;SDS011;15126;42.186;24.340;2023-04-06T10:26:37;8.97;;;7.37;;
27728;SDS011;15126;42.186;24.340;2023-04-06T10:29:05;11.63;;;9.53;;
27728;SDS011;15126;42.186;24.340;2023-04-06T10:31:32;13.03;;;11.70;;
27728;SDS011;15126;42.186;24.340;2023-04-06T10:33:59;11.20;;;10.10;;
27728;SDS011;15126;42.186;24.340;2023-04-06T10:36:31;50.37;;;36.07;;
27728;SDS011;15126;42.186;24.340;2023-04-06T10:39:00;16.03;;;14.33;;
27728;SDS011;15126;42.186;24.340;2023-04-06T10:41:33;15.37;;;12.53;;
27728;SDS011;15126;42.186;24.340;2023-04-06T10:44:01;17.03;;;12.23;;
27728;SDS011;15126;42.186;24.340;2023-04-06T10:46:29;13.90;;;12.20;;
27728;SDS011;15126;42.186;24.340;2023-04-06T10:48:57;13.63;;;10.97;;
27728;SDS011;15126;42.186;24.340;2023-04-06T10:51:26;15.20;;;12.40;;
27728;SDS011;15126;42.186;24.340;2023-04-06T10:53:54;12.00;;;10.80;;
27728;SDS011;15126;42.186;24.340;2023-04-06T10:56:22;16.37;;;14.30;;
27728;SDS011;15126;42.186;24.340;2023-04-06T10:58:54;13.20;;;11.13;;
27728;SDS011;15126;42.186;24.340;2023-04-06T11:01:23;16.57;;;12.47;;
27728;SDS011;15126;42.186;24.340;2023-04-06T11:03:52;12.17;;;10.87;;
27728;SDS011;15126;42.186;24.340;2023-04-06T11:06:21;11.47;;;10.10;;
27728;SDS011;15126;42.186;24.340;2023-04-06T11:08:49;13.40;;;12.10;;
27728;SDS011;15126;42.186;24.340;2023-04-06T11:11:16;10.73;;;9.63;;
27728;SDS011;15126;42.186;24.340;2023-04-06T11:13:46;13.23;;;10.40;;
27728;SDS011;15126;42.186;24.340;2023-04-06T11:16:16;10.90;;;9.90;;
27728;SDS011;15126;42.186;24.340;2023-04-06T11:18:51;15.73;;;10.17;;
27728;SDS011;15126;42.186;24.340;2023-04-06T11:21:32;8.53;;;7.63;;
27728;SDS011;15126;42.186;24.340;2023-04-06T11:24:04;14.33;;;13.03;;
27728;SDS011;15126;42.186;24.340;2023-04-06T11:26:41;9.47;;;8.63;;
27728;SDS011;15126;42.186;24.340;2023-04-06T11:29:10;10.60;;;9.60;;
27728;SDS011;15126;42.186;24.340;2023-04-06T11:31:44;10.40;;;9.17;;
27728;SDS011;15126;42.186;24.340;2023-04-06T11:34:12;14.03;;;12.60;;
27728;SDS011;15126;42.186;24.340;2023-04-06T11:36:40;10.20;;;7.53;;
27728;SDS011;15126;42.186;24.340;2023-04-06T11:39:08;9.87;;;8.67;;
27728;SDS011;15126;42.186;24.340;2023-04-06T11:41:35;8.30;;;7.27;;
27728;SDS011;15126;42.186;24.340;2023-04-06T11:44:02;10.03;;;7.93;;
27728;SDS011;15126;42.186;24.340;2023-04-06T11:46:30;10.60;;;7.37;;
27728;SDS011;15126;42.186;24.340;2023-04-06T11:48:59;9.27;;;8.47;;
27728;SDS011;15126;42.186;24.340;2023-04-06T11:51:27;7.90;;;7.10;;
27728;SDS011;15126;42.186;24.340;2023-04-06T11:53:54;9.37;;;8.57;;
27728;SDS011;15126;42.186;24.340;2023-04-06T11:56:27;8.83;;;8.03;;
27728;SDS011;15126;42.186;24.340;2023-04-06T11:58:56;7.60;;;6.90;;
27728;SDS011;15126;42.186;24.340;2023-04-06T12:01:24;10.27;;;9.23;;
27728;SDS011;15126;42.186;24.340;2023-04-06T12:03:51;10.77;;;8.40;;
27728;SDS011;15126;42.186;24.340;2023-04-06T12:06:20;8.17;;;7.37;;
27728;SDS011;15126;42.186;24.340;2023-04-06T12:08:47;11.17;;;10.00;;
27728;SDS011;15126;42.186;24.340;2023-04-06T12:11:14;8.07;;;7.37;;
27728;SDS011;15126;42.186;24.340;2023-04-06T12:13:41;8.17;;;7.47;;
27728;SDS011;15126;42.186;24.340;2023-04-06T12:16:08;9.13;;;8.27;;
27728;SDS011;15126;42.186;24.340;2023-04-06T12:18:35;10.10;;;9.20;;
27728;SDS011;15126;42.186;24.340;2023-04-06T12:21:02;10.73;;;9.57;;
27728;SDS011;15126;42.186;24.340;2023-04-06T12:23:32;29.47;;;26.03;;
27728;SDS011;15126;42.186;24.340;2023-04-06T12:25:58;15.43;;;13.80;;
27728;SDS011;15126;42.186;24.340;2023-04-06T12:28:26;13.10;;;11.83;;
27728;SDS011;15126;42.186;24.340;2023-04-06T12:30:54;7.70;;;7.10;;
27728;SDS011;15126;42.186;24.340;2023-04-06T12:33:21;10.43;;;9.47;;
27728;SDS011;15126;42.186;24.340;2023-04-06T12:35:48;8.23;;;7.53;;
27728;SDS011;15126;42.186;24.340;2023-04-06T12:38:15;8.23;;;7.40;;
27728;SDS011;15126;42.186;24.340;2023-04-06T12:40:43;9.80;;;8.90;;
27728;SDS011;15126;42.186;24.340;2023-04-06T12:43:10;10.50;;;9.40;;
27728;SDS011;15126;42.186;24.340;2023-04-06T12:45:38;11.00;;;9.77;;
27728;SDS011;15126;42.186;24.340;2023-04-06T12:48:05;12.53;;;11.17;;
27728;SDS011;15126;42.186;24.340;2023-04-06T12:50:32;10.83;;;9.70;;
27728;SDS011;15126;42.186;24.340;2023-04-06T12:52:59;12.53;;;11.40;;
27728;SDS011;15126;42.186;24.340;2023-04-06T12:55:29;8.63;;;7.93;;
27728;SDS011;15126;42.186;24.340;2023-04-06T12:57:57;12.13;;;10.43;;
27728;SDS011;15126;42.186;24.340;2023-04-06T13:00:25;10.43;;;9.43;;
27728;SDS011;15126;42.186;24.340;2023-04-06T13:02:52;11.57;;;9.87;;
27728;SDS011;15126;42.186;24.340;2023-04-06T13:05:19;11.27;;;10.27;;
27728;SDS011;15126;42.186;24.340;2023-04-06T13:07:46;14.00;;;12.67;;
27728;SDS011;15126;42.186;24.340;2023-04-06T13:10:13;12.57;;;11.37;;
27728;SDS011;15126;42.186;24.340;2023-04-06T13:12:40;31.93;;;24.40;;
27728;SDS011;15126;42.186;24.340;2023-04-06T13:15:09;20.13;;;15.93;;
27728;SDS011;15126;42.186;24.340;2023-04-06T13:17:36;14.03;;;9.87;;
27728;SDS011;15126;42.186;24.340;2023-04-06T13:20:04;17.93;;;13.40;;
27728;SDS011;15126;42.186;24.340;2023-04-06T13:22:31;11.90;;;10.63;;
27728;SDS011;15126;42.186;24.340;2023-04-06T13:24:58;9.00;;;8.13;;
27728;SDS011;15126;42.186;24.340;2023-04-06T13:27:25;8.57;;;7.77;;
27728;SDS011;15126;42.186;24.340;2023-04-06T13:29:53;7.87;;;6.97;;
27728;SDS011;15126;42.186;24.340;2023-04-06T13:32:22;9.57;;;8.73;;
27728;SDS011;15126;42.186;24.340;2023-04-06T13:34:49;9.50;;;8.60;;
27728;SDS011;15126;42.186;24.340;2023-04-06T13:37:18;9.70;;;8.87;;
27728;SDS011;15126;42.186;24.340;2023-04-06T13:39:45;8.80;;;8.10;;
27728;SDS011;15126;42.186;24.340;2023-04-06T13:42:12;7.67;;;7.07;;
27728;SDS011;15126;42.186;24.340;2023-04-06T13:44:39;8.60;;;7.80;;
27728;SDS011;15126;42.186;24.340;2023-04-06T13:47:06;9.60;;;7.57;;
27728;SDS011;15126;42.186;24.340;2023-04-06T13:49:34;8.03;;;7.37;;
27728;SDS011;15126;42.186;24.340;2023-04-06T13:52:01;11.13;;;7.03;;
27728;SDS011;15126;42.186;24.340;2023-04-06T13:54:28;13.43;;;12.13;;
27728;SDS011;15126;42.186;24.340;2023-04-06T13:56:55;9.57;;;8.70;;
27728;SDS011;15126;42.186;24.340;2023-04-06T13:59:22;8.43;;;7.73;;
27728;SDS011;15126;42.186;24.340;2023-04-06T14:01:49;9.73;;;8.90;;
27728;SDS011;15126;42.186;24.340;2023-04-06T14:04:16;10.17;;;9.17;;
27728;SDS011;15126;42.186;24.340;2023-04-06T14:06:45;8.37;;;7.67;;
27728;SDS011;15126;42.186;24.340;2023-04-06T14:09:12;8.77;;;7.93;;
27728;SDS011;15126;42.186;24.340;2023-04-06T14:11:39;10.97;;;9.37;;
27728;SDS011;15126;42.186;24.340;2023-04-06T14:14:06;7.97;;;7.20;;
27728;SDS011;15126;42.186;24.340;2023-04-06T14:16:33;9.90;;;8.90;;
27728;SDS011;15126;42.186;24.340;2023-04-06T14:18:59;9.10;;;8.23;;
27728;SDS011;15126;42.186;24.340;2023-04-06T14:21:26;10.90;;;10.10;;